createdAt,value
2018-05-31T00:01:46.266Z,43.50
2018-05-31T00:04:20.873Z,47.50
2018-05-31T00:06:56.110Z,43.53
2018-05-31T00:09:30.921Z,40.00
2018-05-31T00:12:05.465Z,37.70
2018-05-31T00:14:40.654Z,35.73
2018-05-31T00:17:15.558Z,34.50
2018-05-31T00:19:50.586Z,34.07
2018-05-31T00:22:25.609Z,34.03
2018-05-31T00:25:00.362Z,32.90
2018-05-31T00:27:35.345Z,29.70
2018-05-31T00:30:10.554Z,29.53
2018-05-31T00:32:45.974Z,29.20
2018-05-31T00:35:21.053Z,27.37
2018-05-31T00:37:56.207Z,26.30
2018-05-31T00:40:31.181Z,24.20
2018-05-31T00:43:06.422Z,26.93
2018-05-31T00:45:41.759Z,24.83
2018-05-31T00:48:17.009Z,24.50
2018-05-31T00:50:51.718Z,24.87
2018-05-31T00:53:26.500Z,25.03
2018-05-31T00:56:16.997Z,24.13
2018-05-31T00:58:51.657Z,25.00
2018-05-31T01:01:26.720Z,22.07
2018-05-31T01:04:01.810Z,22.73
2018-05-31T01:06:36.767Z,21.97
2018-05-31T01:09:12.218Z,21.73
2018-05-31T01:11:47.298Z,24.10
2018-05-31T01:14:22.386Z,22.90
2018-05-31T01:16:57.049Z,23.23
2018-05-31T01:19:31.870Z,22.40
2018-05-31T01:22:06.916Z,20.50
2018-05-31T01:24:41.859Z,20.90
2018-05-31T01:27:16.798Z,22.90
2018-05-31T01:29:53.210Z,21.40
2018-05-31T01:32:28.799Z,22.07
2018-05-31T01:35:04.055Z,22.53
2018-05-31T01:37:39.077Z,22.50
2018-05-31T01:40:14.382Z,23.30
2018-05-31T01:42:49.590Z,21.80
2018-05-31T01:45:24.798Z,24.97
2018-05-31T01:48:00.504Z,21.00
2018-05-31T01:50:35.781Z,21.53
2018-05-31T01:53:11.025Z,21.40
2018-05-31T01:55:45.924Z,20.40
2018-05-31T01:58:21.115Z,22.17
2018-05-31T02:00:56.065Z,21.70
2018-05-31T02:03:31.312Z,21.23
2018-05-31T02:06:05.606Z,23.57
2018-05-31T02:08:41.031Z,25.20
2018-05-31T02:11:16.166Z,22.27
2018-05-31T02:13:50.880Z,22.77
2018-05-31T02:16:26.345Z,21.53
2018-05-31T02:19:01.391Z,22.73
2018-05-31T02:21:36.209Z,21.40
2018-05-31T02:24:20.526Z,22.93
2018-05-31T02:26:55.193Z,21.97
2018-05-31T02:29:29.929Z,20.67
2018-05-31T02:32:04.651Z,24.10
2018-05-31T02:34:39.686Z,21.73
2018-05-31T02:37:14.534Z,21.97
2018-05-31T02:39:49.437Z,21.20
2018-05-31T02:42:24.490Z,21.17
2018-05-31T02:44:59.588Z,22.43
2018-05-31T02:47:34.749Z,21.13
2018-05-31T02:50:10.214Z,24.13
2018-05-31T02:52:45.130Z,22.37
2018-05-31T02:55:20.490Z,24.20
2018-05-31T02:57:55.634Z,22.40
2018-05-31T03:00:30.947Z,22.13
2018-05-31T03:03:06.035Z,23.57
2018-05-31T03:05:41.245Z,21.57
2018-05-31T03:08:16.698Z,24.60
2018-05-31T03:10:51.796Z,24.53
2018-05-31T03:13:27.010Z,23.20
2018-05-31T03:16:01.649Z,22.47
2018-05-31T03:18:36.337Z,27.53
2018-05-31T03:21:11.782Z,25.77
2018-05-31T03:23:47.104Z,25.90
2018-05-31T03:26:22.577Z,26.77
2018-05-31T03:28:57.699Z,23.80
2018-05-31T03:31:32.930Z,24.77
2018-05-31T03:34:08.471Z,25.10
2018-05-31T03:36:43.611Z,25.20
2018-05-31T03:39:18.366Z,25.03
2018-05-31T03:41:53.087Z,24.53
2018-05-31T03:44:27.894Z,24.70
2018-05-31T03:47:02.897Z,24.60
2018-05-31T03:49:37.601Z,25.10
2018-05-31T03:52:12.603Z,24.93
2018-05-31T03:54:47.564Z,23.43
2018-05-31T03:57:22.382Z,23.20
2018-05-31T03:59:57.493Z,22.30
2018-05-31T04:02:32.633Z,24.63
2018-05-31T04:05:07.774Z,23.27
2018-05-31T04:07:43.197Z,22.87
2018-05-31T04:10:18.382Z,22.30
2018-05-31T04:12:53.866Z,23.03
2018-05-31T04:15:29.444Z,21.77
2018-05-31T04:18:04.690Z,27.87
2018-05-31T04:20:39.594Z,22.90
2018-05-31T04:23:14.454Z,20.83
2018-05-31T04:25:49.286Z,21.87
2018-05-31T04:28:24.582Z,22.40
2018-05-31T04:30:59.201Z,21.90
2018-05-31T04:33:34.825Z,22.53
2018-05-31T04:36:10.045Z,21.10
2018-05-31T04:38:45.102Z,20.30
2018-05-31T04:41:20.136Z,22.40
2018-05-31T04:43:55.145Z,23.30
2018-05-31T04:46:30.289Z,23.63
2018-05-31T04:49:04.831Z,21.43
2018-05-31T04:51:39.773Z,22.40
2018-05-31T04:54:14.716Z,22.20
2018-05-31T04:56:49.601Z,24.40
2018-05-31T04:59:24.578Z,23.50
2018-05-31T05:01:59.246Z,24.17
2018-05-31T05:04:34.486Z,24.07
2018-05-31T05:07:09.486Z,24.27
2018-05-31T05:09:44.284Z,22.80
2018-05-31T05:12:19.256Z,24.10
2018-05-31T05:14:54.278Z,20.50
2018-05-31T05:17:29.311Z,24.73
2018-05-31T05:20:04.009Z,23.43
2018-05-31T05:22:38.579Z,23.37
2018-05-31T05:25:13.300Z,23.90
2018-05-31T05:27:48.930Z,23.20
2018-05-31T05:30:23.745Z,24.37
2018-05-31T05:32:58.349Z,23.17
2018-05-31T05:35:33.398Z,24.13
2018-05-31T05:38:08.445Z,23.00
2018-05-31T05:40:43.556Z,23.97
2018-05-31T05:43:18.403Z,22.10
2018-05-31T05:45:53.686Z,24.00
2018-05-31T05:48:29.018Z,22.57
2018-05-31T05:51:03.951Z,21.83
2018-05-31T05:53:38.767Z,22.03
2018-05-31T05:56:13.693Z,23.13
2018-05-31T05:58:48.779Z,24.47
2018-05-31T06:01:23.781Z,26.30
2018-05-31T06:03:58.922Z,24.47
2018-05-31T06:06:33.951Z,23.50
2018-05-31T06:09:08.769Z,24.53
2018-05-31T06:11:43.710Z,23.10
2018-05-31T06:14:18.554Z,23.20
2018-05-31T06:16:53.374Z,23.80
2018-05-31T06:19:28.582Z,24.70
2018-05-31T06:22:03.278Z,22.37
2018-05-31T06:24:38.558Z,23.30
2018-05-31T06:27:13.277Z,22.97
2018-05-31T06:29:48.359Z,22.73
2018-05-31T06:32:23.781Z,21.93
2018-05-31T06:34:59.042Z,23.40
2018-05-31T06:37:33.868Z,22.37
2018-05-31T06:40:08.810Z,22.73
2018-05-31T06:42:43.946Z,21.60
2018-05-31T06:45:18.968Z,21.73
2018-05-31T06:47:53.834Z,21.50
2018-05-31T06:50:28.339Z,22.13
2018-05-31T06:53:03.470Z,22.33
2018-05-31T06:55:38.458Z,22.60
2018-05-31T06:58:13.589Z,21.10
2018-05-31T07:00:48.354Z,21.30
2018-05-31T07:03:23.209Z,22.37
2018-05-31T07:05:58.410Z,21.20
2018-05-31T07:08:33.433Z,19.40
2018-05-31T07:11:08.637Z,20.20
2018-05-31T07:13:43.113Z,20.70
2018-05-31T07:16:18.041Z,19.60
2018-05-31T07:18:52.769Z,19.83
2018-05-31T07:21:27.643Z,18.97
2018-05-31T07:24:03.030Z,19.53
2018-05-31T07:26:37.684Z,18.80
2018-05-31T07:29:12.315Z,19.27
2018-05-31T07:31:47.448Z,17.70
2018-05-31T07:34:22.466Z,18.87
2018-05-31T07:36:57.174Z,20.83
2018-05-31T07:39:31.943Z,19.80
2018-05-31T07:42:07.258Z,19.87
2018-05-31T07:44:41.886Z,19.13
2018-05-31T07:47:16.981Z,18.43
2018-05-31T07:49:51.987Z,17.60
2018-05-31T07:52:27.310Z,17.40
2018-05-31T07:55:02.490Z,19.87
2018-05-31T07:57:37.323Z,20.23
2018-05-31T08:00:12.425Z,21.13
2018-05-31T08:02:47.282Z,20.23
2018-05-31T08:05:22.540Z,20.07
2018-05-31T08:07:57.490Z,18.83
2018-05-31T08:10:32.690Z,20.03
2018-05-31T08:13:08.065Z,19.47
2018-05-31T08:15:43.031Z,19.93
2018-05-31T08:18:18.212Z,18.90
2018-05-31T08:20:53.470Z,19.17
2018-05-31T08:23:28.491Z,21.40
2018-05-31T08:26:03.394Z,17.30
2018-05-31T08:28:38.278Z,15.23
2018-05-31T08:31:13.286Z,14.10
2018-05-31T08:33:47.910Z,15.00
2018-05-31T08:36:22.718Z,15.40
2018-05-31T08:38:57.565Z,13.00
2018-05-31T08:41:32.106Z,14.70
2018-05-31T08:44:06.832Z,12.67
2018-05-31T08:46:42.230Z,12.83
2018-05-31T08:49:17.340Z,15.47
2018-05-31T08:51:52.346Z,12.90
2018-05-31T08:54:27.714Z,12.77
2018-05-31T08:57:02.253Z,13.13
2018-05-31T08:59:37.318Z,14.00
2018-05-31T09:02:12.495Z,16.13
2018-05-31T09:04:47.946Z,14.43
2018-05-31T09:07:23.161Z,14.27
2018-05-31T09:09:58.418Z,14.50
2018-05-31T09:12:33.782Z,13.70
2018-05-31T09:15:08.241Z,14.43
2018-05-31T09:17:43.306Z,14.40
2018-05-31T09:20:18.063Z,14.97
2018-05-31T09:22:53.197Z,10.70
2018-05-31T09:25:28.207Z,11.50
2018-05-31T09:28:03.009Z,12.97
2018-05-31T09:30:38.058Z,12.00
2018-05-31T09:33:13.451Z,14.10
2018-05-31T09:35:48.659Z,12.87
2018-05-31T09:38:23.729Z,15.30
2018-05-31T09:40:58.490Z,11.97
2018-05-31T09:43:33.781Z,12.27
2018-05-31T09:46:08.733Z,13.50
2018-05-31T09:48:43.555Z,11.27
2018-05-31T09:51:18.881Z,11.57
2018-05-31T09:53:53.929Z,11.80
2018-05-31T09:56:28.980Z,12.00
2018-05-31T09:59:04.083Z,12.70
2018-05-31T10:01:38.642Z,11.53
2018-05-31T10:04:14.118Z,11.53
2018-05-31T10:06:49.222Z,11.17
2018-05-31T10:09:24.558Z,10.93
2018-05-31T10:11:59.879Z,10.57
2018-05-31T10:14:35.194Z,12.10
2018-05-31T10:17:10.039Z,12.70
2018-05-31T10:19:44.914Z,11.87
2018-05-31T10:22:19.924Z,12.53
2018-05-31T10:24:54.970Z,11.90
2018-05-31T10:27:29.807Z,13.37
2018-05-31T10:30:04.547Z,12.00
2018-05-31T10:32:39.959Z,11.80
2018-05-31T10:35:14.861Z,11.70
2018-05-31T10:37:49.593Z,10.67
2018-05-31T10:40:24.483Z,11.33
2018-05-31T10:42:58.942Z,11.27
2018-05-31T10:45:33.918Z,11.60
2018-05-31T10:48:08.734Z,10.73
2018-05-31T10:50:43.677Z,10.17
2018-05-31T10:53:18.517Z,11.07
2018-05-31T10:55:53.528Z,9.87
2018-05-31T10:58:28.476Z,10.03
2018-05-31T11:01:03.505Z,12.77
2018-05-31T11:03:38.637Z,11.13
2018-05-31T11:06:13.237Z,12.53
2018-05-31T11:08:47.694Z,12.70
2018-05-31T11:11:22.999Z,10.43
2018-05-31T11:13:57.928Z,11.20
2018-05-31T11:16:32.975Z,11.67
2018-05-31T11:19:08.111Z,13.50
2018-05-31T11:21:42.806Z,11.43
2018-05-31T11:24:17.811Z,12.40
2018-05-31T11:26:52.982Z,11.87
2018-05-31T11:29:28.088Z,12.87
2018-05-31T11:32:03.317Z,10.90
2018-05-31T11:34:38.678Z,11.63
2018-05-31T11:37:13.803Z,12.73
2018-05-31T11:39:48.861Z,13.73
2018-05-31T11:42:23.686Z,11.23
2018-05-31T11:44:58.805Z,11.37
2018-05-31T11:47:33.941Z,11.17
2018-05-31T11:50:09.067Z,11.77
2018-05-31T11:52:44.082Z,12.40
2018-05-31T11:55:19.275Z,12.53
2018-05-31T11:57:54.710Z,11.00
2018-05-31T12:00:29.646Z,11.03
2018-05-31T12:03:04.546Z,11.57
2018-05-31T12:05:39.638Z,12.40
2018-05-31T12:08:14.587Z,10.80
2018-05-31T12:10:49.403Z,10.50
2018-05-31T12:13:24.703Z,12.57
2018-05-31T12:15:59.555Z,10.57
2018-05-31T12:18:34.457Z,9.90
2018-05-31T12:21:08.996Z,10.57
2018-05-31T12:23:44.026Z,8.90
2018-05-31T12:26:18.708Z,9.23
2018-05-31T12:28:53.694Z,8.93
2018-05-31T12:31:28.754Z,8.60
2018-05-31T12:34:03.697Z,7.43
2018-05-31T12:36:38.697Z,7.30
2018-05-31T12:39:13.702Z,6.70
2018-05-31T12:41:48.814Z,6.20
2018-05-31T12:44:23.491Z,6.50
2018-05-31T12:46:58.639Z,6.30
2018-05-31T12:49:33.896Z,7.40
2018-05-31T12:52:08.782Z,6.67
2018-05-31T12:54:43.815Z,6.60
2018-05-31T12:57:19.003Z,6.63
2018-05-31T12:59:53.813Z,7.83
2018-05-31T13:02:28.754Z,9.10
2018-05-31T13:05:03.430Z,8.10
2018-05-31T13:07:38.722Z,7.30
2018-05-31T13:10:13.874Z,7.63
2018-05-31T13:12:48.679Z,8.23
2018-05-31T13:15:23.662Z,8.03
2018-05-31T13:17:58.547Z,8.33
2018-05-31T13:20:33.637Z,8.63
2018-05-31T13:23:08.443Z,7.30
2018-05-31T13:25:43.770Z,8.30
2018-05-31T13:28:18.869Z,8.47
2018-05-31T13:30:53.957Z,8.20
2018-05-31T13:33:29.310Z,8.10
2018-05-31T13:36:04.414Z,8.40
2018-05-31T13:38:39.716Z,8.10
2018-05-31T13:41:14.592Z,7.57
2018-05-31T13:43:50.126Z,7.80
2018-05-31T13:46:24.560Z,8.03
2018-05-31T13:48:59.750Z,7.43
2018-05-31T13:51:34.715Z,8.03
2018-05-31T13:54:09.924Z,8.03
2018-05-31T13:56:45.242Z,8.63
2018-05-31T13:59:20.557Z,8.77
2018-05-31T14:01:55.875Z,8.13
2018-05-31T14:04:31.031Z,8.60
2018-05-31T14:07:06.127Z,7.73
2018-05-31T14:09:41.604Z,9.30
2018-05-31T14:12:16.515Z,8.43
2018-05-31T14:14:51.527Z,8.93
2018-05-31T14:17:26.194Z,8.03
2018-05-31T14:20:01.154Z,7.50
2018-05-31T14:22:36.157Z,7.07
2018-05-31T14:25:11.225Z,7.13
2018-05-31T14:27:46.274Z,7.57
2018-05-31T14:30:21.414Z,7.63
2018-05-31T14:32:56.643Z,8.63
2018-05-31T14:35:31.897Z,8.07
2018-05-31T14:38:07.005Z,9.37
2018-05-31T14:40:42.178Z,8.93
2018-05-31T14:43:17.710Z,7.97
2018-05-31T14:45:52.638Z,6.97
2018-05-31T14:48:27.961Z,7.40
2018-05-31T14:51:03.143Z,7.50
2018-05-31T14:53:38.150Z,9.50
2018-05-31T14:56:13.255Z,13.33
2018-05-31T14:58:48.229Z,10.00
2018-05-31T15:01:23.013Z,9.90
2018-05-31T15:03:57.881Z,14.20
2018-05-31T15:06:32.871Z,14.57
2018-05-31T15:09:07.526Z,11.10
2018-05-31T15:11:42.629Z,7.00
2018-05-31T15:14:17.112Z,8.73
2018-05-31T15:16:52.159Z,8.50
2018-05-31T15:19:27.089Z,8.07
2018-05-31T15:22:02.206Z,8.80
2018-05-31T15:24:37.153Z,9.60
2018-05-31T15:27:11.996Z,8.83
2018-05-31T15:29:47.107Z,8.33
2018-05-31T15:32:22.212Z,8.10
2018-05-31T15:34:57.118Z,9.33
2018-05-31T15:37:31.588Z,9.23
2018-05-31T15:40:06.412Z,9.40
2018-05-31T15:42:41.427Z,10.10
2018-05-31T15:45:16.218Z,9.30
2018-05-31T15:47:51.038Z,11.03
2018-05-31T15:50:26.175Z,11.70
2018-05-31T15:53:01.316Z,10.37
2018-05-31T15:55:36.269Z,10.67
2018-05-31T15:58:10.966Z,9.27
2018-05-31T16:00:46.010Z,10.17
2018-05-31T16:03:21.271Z,10.90
2018-05-31T16:05:56.270Z,11.57
2018-05-31T16:08:31.165Z,10.63
2018-05-31T16:11:06.178Z,11.70
2018-05-31T16:13:40.707Z,12.20
2018-05-31T16:16:15.710Z,12.30
2018-05-31T16:18:50.660Z,12.50
2018-05-31T16:21:25.794Z,11.67
2018-05-31T16:24:01.032Z,11.37
2018-05-31T16:26:36.290Z,12.23
2018-05-31T16:29:10.811Z,12.77
2018-05-31T16:31:45.950Z,11.07
2018-05-31T16:34:21.279Z,11.50
2018-05-31T16:36:56.330Z,12.40
2018-05-31T16:39:31.762Z,11.83
2018-05-31T16:42:06.977Z,12.27
2018-05-31T16:44:42.337Z,12.77
2018-05-31T16:47:17.275Z,12.50
2018-05-31T16:49:52.327Z,12.67
2018-05-31T16:52:27.142Z,14.77
2018-05-31T16:55:02.202Z,13.70
2018-05-31T16:57:37.027Z,12.60
2018-05-31T17:00:12.141Z,11.97
2018-05-31T17:02:47.402Z,12.20
2018-05-31T17:05:22.545Z,13.07
2018-05-31T17:07:57.663Z,13.77
2018-05-31T17:10:32.602Z,13.10
2018-05-31T17:13:07.554Z,13.37
2018-05-31T17:15:42.691Z,15.13
2018-05-31T17:18:17.399Z,13.10
2018-05-31T17:20:52.228Z,14.20
2018-05-31T17:23:27.370Z,12.83
2018-05-31T17:26:02.502Z,13.30
2018-05-31T17:28:37.206Z,15.80
2018-05-31T17:31:11.775Z,16.10
2018-05-31T17:33:47.033Z,17.10
2018-05-31T17:36:22.350Z,16.97
2018-05-31T17:38:57.483Z,16.67
2018-05-31T17:41:32.862Z,20.70
2018-05-31T17:44:07.947Z,19.27
2018-05-31T17:46:43.083Z,19.40
2018-05-31T17:49:18.241Z,20.07
2018-05-31T17:51:53.273Z,20.83
2018-05-31T17:54:28.266Z,20.60
2018-05-31T17:57:03.299Z,19.23
2018-05-31T17:59:38.161Z,20.00
2018-05-31T18:02:13.225Z,19.50
2018-05-31T18:04:48.101Z,19.70
2018-05-31T18:07:23.179Z,20.23
2018-05-31T18:09:58.206Z,19.10
2018-05-31T18:12:33.544Z,16.50
2018-05-31T18:15:07.965Z,15.10
2018-05-31T18:17:43.032Z,15.90
2018-05-31T18:20:17.989Z,13.07
2018-05-31T18:22:53.077Z,14.00
2018-05-31T18:25:28.230Z,14.77
2018-05-31T18:28:03.497Z,15.47
2018-05-31T18:30:38.497Z,14.20
2018-05-31T18:33:13.738Z,16.43
2018-05-31T18:35:48.872Z,15.67
2018-05-31T18:38:23.784Z,15.10
2018-05-31T18:40:58.899Z,16.03
2018-05-31T18:43:34.274Z,15.93
2018-05-31T18:46:09.351Z,14.70
2018-05-31T18:48:43.965Z,15.33
2018-05-31T18:51:20.002Z,17.07
2018-05-31T18:53:54.974Z,16.40
2018-05-31T18:56:30.178Z,18.03
2018-05-31T18:59:05.308Z,16.70
2018-05-31T19:01:40.567Z,15.70
2018-05-31T19:04:15.887Z,17.43
2018-05-31T19:06:51.159Z,18.60
2018-05-31T19:09:31.372Z,18.53
2018-05-31T19:12:05.686Z,17.27
2018-05-31T19:14:40.871Z,22.33
2018-05-31T19:17:15.888Z,18.67
2018-05-31T19:19:55.488Z,20.03
2018-05-31T19:22:30.854Z,20.17
2018-05-31T19:25:11.269Z,21.00
2018-05-31T19:27:45.751Z,19.43
2018-05-31T19:30:26.102Z,20.23
2018-05-31T19:33:00.720Z,19.30
2018-05-31T19:35:41.302Z,21.90
2018-05-31T19:38:16.322Z,21.57
2018-05-31T19:40:51.426Z,21.73
2018-05-31T19:43:31.726Z,22.33
2018-05-31T19:46:06.371Z,21.80
2018-05-31T19:48:41.535Z,22.17
2018-05-31T19:51:21.971Z,20.03
2018-05-31T19:53:57.127Z,20.87
2018-05-31T19:56:32.360Z,22.27
2018-05-31T19:59:12.437Z,20.47
2018-05-31T20:01:53.009Z,22.93
2018-05-31T20:04:27.659Z,23.90
2018-05-31T20:07:02.799Z,24.47
2018-05-31T20:09:37.746Z,25.03
2018-05-31T20:12:13.084Z,23.93
2018-05-31T20:14:48.218Z,22.17
2018-05-31T20:17:23.254Z,21.80
2018-05-31T20:19:58.302Z,24.20
2018-05-31T20:22:32.964Z,24.80
2018-05-31T20:25:08.156Z,24.90
2018-05-31T20:27:43.040Z,26.10
2018-05-31T20:30:17.954Z,23.00
2018-05-31T20:32:52.680Z,25.50
2018-05-31T20:35:27.434Z,22.80
2018-05-31T20:38:02.346Z,22.40
2018-05-31T20:40:37.603Z,23.63
2018-05-31T20:43:12.538Z,24.30
2018-05-31T20:45:48.480Z,24.57
2018-05-31T20:48:23.625Z,23.07
2018-05-31T20:50:58.597Z,24.60
2018-05-31T20:53:33.813Z,25.23
2018-05-31T20:56:08.618Z,25.90
2018-05-31T20:58:43.864Z,27.20
2018-05-31T21:01:18.943Z,26.90
2018-05-31T21:03:53.977Z,26.23
2018-05-31T21:06:29.750Z,28.13
2018-05-31T21:09:04.382Z,26.43
2018-05-31T21:11:39.595Z,28.07
2018-05-31T21:14:15.159Z,27.50
2018-05-31T21:16:50.170Z,28.60
2018-05-31T21:19:26.059Z,26.60
2018-05-31T21:22:01.503Z,28.70
2018-05-31T21:24:38.483Z,28.30
2018-05-31T21:27:14.083Z,25.97
2018-05-31T21:29:49.170Z,26.47
2018-05-31T21:32:23.865Z,27.23
2018-05-31T21:34:58.982Z,27.00
2018-05-31T21:37:33.841Z,30.27
2018-05-31T21:40:08.737Z,30.40
2018-05-31T21:42:43.786Z,28.83
2018-05-31T21:45:18.817Z,30.03
2018-05-31T21:47:53.968Z,30.00
2018-05-31T21:50:28.999Z,29.83
2018-05-31T21:53:04.142Z,29.30
2018-05-31T21:55:39.059Z,33.13
2018-05-31T21:58:14.244Z,30.63
2018-05-31T22:00:54.614Z,30.13
2018-05-31T22:03:29.713Z,30.90
2018-05-31T22:06:04.343Z,31.07
2018-05-31T22:08:39.242Z,30.93
2018-05-31T22:11:14.210Z,29.70
2018-05-31T22:13:49.231Z,31.30
2018-05-31T22:16:23.933Z,31.93
2018-05-31T22:18:58.934Z,30.83
2018-05-31T22:21:34.126Z,32.27
2018-05-31T22:24:09.043Z,30.13
2018-05-31T22:26:43.247Z,31.73
2018-05-31T22:29:18.623Z,31.20
2018-05-31T22:31:53.346Z,31.00
2018-05-31T22:34:28.666Z,30.37
2018-05-31T22:37:03.835Z,32.67
2018-05-31T22:39:38.565Z,31.40
2018-05-31T22:42:13.040Z,33.10
2018-05-31T22:44:47.946Z,32.43
2018-05-31T22:47:23.114Z,30.70
2018-05-31T22:49:57.666Z,33.30
2018-05-31T22:52:32.443Z,29.63
2018-05-31T22:55:07.062Z,30.57
2018-05-31T22:57:42.098Z,31.80
2018-05-31T23:00:17.234Z,32.40
2018-05-31T23:02:51.900Z,33.53
2018-05-31T23:05:27.029Z,30.60
2018-05-31T23:08:01.731Z,31.77
2018-05-31T23:10:36.338Z,30.20
2018-05-31T23:13:11.417Z,30.10
2018-05-31T23:15:46.479Z,31.27
2018-05-31T23:18:21.737Z,31.40
2018-05-31T23:20:56.741Z,32.03
2018-05-31T23:23:31.738Z,31.00
2018-05-31T23:26:06.377Z,31.90
2018-05-31T23:28:41.394Z,32.43
2018-05-31T23:31:16.419Z,31.90
2018-05-31T23:33:50.940Z,34.80
2018-05-31T23:36:26.175Z,32.63
2018-05-31T23:39:01.145Z,31.87
2018-05-31T23:41:35.951Z,32.80
2018-05-31T23:44:10.890Z,35.13
2018-05-31T23:46:46.197Z,33.80
2018-05-31T23:49:20.926Z,32.80
2018-05-31T23:51:55.867Z,34.73
2018-05-31T23:54:30.714Z,36.60
2018-05-31T23:57:05.372Z,35.07
2018-05-31T23:59:40.374Z,34.83
